Aviation Digital Data Service (ADDS)

Output produced by METARs form (1059 UTC 19 January 2019)
found at http://www.aviationweather.gov/metar/data/
 
KABE 191051Z 00000KT 9SM OVC041 00/M03 A3019 RMK AO2 SLP227 T00001028
KABE 190520Z 1906/2006 VRB04KT P6SM BKN050 
     FM191500 07005KT P6SM OVC200 
     FM191900 10007KT 3SM -SN OVC015 
     FM200300 07010KT 1SM -SNPL OVC008
       
KPTW 191054Z AUTO 07004KT 6SM HZ OVC047 M01/M03 A3019 RMK AO2 SLP222 T10061033 TSNO
KMQS 191035Z AUTO 00000KT 10SM OVC043 00/M03 A3018 RMK AO2
KMQS 191015Z AUTO 00000KT 10SM OVC042 00/M03 A3018 RMK AO2
KPHL 191054Z 08004KT 10SM OVC050 01/M02 A3021 RMK AO2 SLP231 T00111022
KPHL 190855Z 1909/2012 33004KT P6SM BKN050 
     FM191300 06005KT P6SM OVC200 
     FM192000 08010KT 4SM -SN BR OVC015 
     FM200000 09009KT 2SM -SNRA OVC008 
     FM200300 07009KT 2SM +RA OVC008 
     FM200600 04004KT 2SM +RA OVC008 WS020/18040KT
       
KILG 191051Z AUTO 07004KT 8SM OVC050 01/M02 A3020 RMK AO2 SLP227 T00111017
KILG 190859Z 1909/2006 33004KT P6SM BKN050 
     FM191300 05005KT P6SM OVC100 
     FM191900 08010KT 4SM -SN BR OVC015 
     FM192200 09008KT 4SM -SNRA OVC010 
     FM200300 07011KT 2SM +RA OVC008
       
KMTN 191045Z 00000KT 3SM BR OVC046 02/02 A3020 RMK FIRST
KMTN 191030Z AUTO 00000KT 2 1/2SM BR OVC048 01/01 A3020 RMK AO2
KMTN 191021Z AUTO 00000KT 2 1/2SM BR OVC050 01/01 A3021 RMK AO2
KMTN 191003Z AUTO 00000KT 2 1/2SM BR OVC050 01/01 A3021 RMK AO2
KMTN 182324Z 1900/1924 VRB04KT 5SM BR SCT050 
     FM191200 05004KT P6SM BKN050 
     FM191700 09007KT P6SM OVC025 
     FM191800 09007KT 3SM -SN OVC015 
     FM191900 10008KT 1 1/2SM -SN OVC010 
     FM192100 10009KT 1SM -FZRASNPL OVC008 
     FM192300 10009KT 1SM -FZRASNPL OVC003 AMD NOT SKED 1902/1912
       
KBWI 191054Z 10003KT 4SM BR FEW032 OVC049 01/01 A3017 RMK AO2 SLP217 T00110006
KBWI 190829Z 1908/2012 VRB03KT P6SM OVC050 
     FM191200 05004KT P6SM BKN060 
     FM191800 09007KT 2SM -SN OVC008 
     FM192100 10009KT 1SM -RASNPL OVC008 
     FM192200 10010G17KT 1SM -RASNPL OVC003 
     FM200000 10010G17KT 1SM -RA OVC008 
     FM200500 14006KT 1SM -RA OVC008 WS020/19035KT
       
KDCA 191052Z 11003KT 10SM OVC050 04/01 A3019 RMK AO2 SLP222 T00390006
KDCA 190829Z 1908/2012 VRB03KT P6SM OVC050 
     FM191200 06004KT P6SM BKN035 
     FM191800 09006KT 1 1/2SM -RASNPL OVC008 
     FM200000 11009KT 1SM -RA OVC008 
     FM200500 16005KT 1SM -RA OVC008 WS020/19035KT
       
KIAD 191052Z 00000KT 2 1/2SM BR OVC041 01/01 A3017 RMK AO2 SLP219 T00060006
KIAD 190829Z 1908/2012 VRB03KT 2SM BR SCT002 OVC045 
     FM191700 10006KT P6SM OVC008 
     FM191900 10007KT 1 1/2SM -SNRAPL OVC003 
     FM192100 11008KT 1/2SM -FZRA OVC003 
     FM200000 11008KT 1SM -FZRA OVC008 
     FM200300 11005KT 1SM -RA OVC008